Time;durP1;ratioP1;P1;durP2;ratioP2;P2;SDS_P1;SDS_P2;PMS_P1;PMS_P2;Temp;Humidity;BMP_temperature;BMP_pressure;BME280_temperature;BME280_humidity;BME280_pressure;Samples;Min_cycle;Max_cycle;Signal;HPM_P1;HPM_P2
2022/03/12 00:02:36;;;;;;;11.48;6.63;;;6.50;53.90;;;;;;5046492;27;20546;-84
2022/03/12 00:05:09;;;;;;;11.75;6.97;;;6.50;53.90;;;;;;5076197;27;20041;-84
2022/03/12 00:07:41;;;;;;;14.20;7.13;;;6.50;53.90;;;;;;5025468;28;20053;-85
2022/03/12 00:10:12;;;;;;;11.98;6.80;;;6.50;53.70;;;;;;5036679;28;20449;-85
2022/03/12 00:12:38;;;;;;;12.40;6.93;;;6.50;53.90;;;;;;5023537;28;20998;-85
2022/03/12 00:15:12;;;;;;;11.77;6.40;;;6.50;54.50;;;;;;5024680;28;20058;-84
2022/03/12 00:17:39;;;;;;;13.55;6.75;;;6.40;53.90;;;;;;5036321;28;20525;-85
2022/03/12 00:20:12;;;;;;;12.88;6.63;;;6.50;53.60;;;;;;5056182;28;20141;-84
2022/03/12 00:22:43;;;;;;;12.18;7.00;;;6.50;53.80;;;;;;5046890;28;20051;-86
2022/03/12 00:25:10;;;;;;;12.25;6.53;;;6.50;53.70;;;;;;5037959;27;20091;-85
2022/03/12 00:27:41;;;;;;;12.63;5.95;;;6.50;53.70;;;;;;5024953;28;20057;-85
2022/03/12 00:30:09;;;;;;;11.95;6.50;;;6.50;53.80;;;;;;5045090;28;20038;-86
2022/03/12 00:32:36;;;;;;;11.48;6.82;;;6.50;53.90;;;;;;5057766;28;20049;-85
2022/03/12 00:35:06;;;;;;;12.00;6.53;;;6.40;53.80;;;;;;5094017;28;20035;-85
2022/03/12 00:37:32;;;;;;;13.52;7.30;;;6.50;53.90;;;;;;5072934;28;20050;-85
2022/03/12 00:39:57;;;;;;;11.73;6.68;;;6.50;53.80;;;;;;5030612;28;20393;-85
2022/03/12 00:42:23;;;;;;;12.02;7.15;;;6.50;53.80;;;;;;5032463;28;20049;-85
2022/03/12 00:44:48;;;;;;;11.98;7.10;;;6.50;53.60;;;;;;5072649;28;20485;-85
2022/03/12 00:47:16;;;;;;;12.13;6.95;;;6.50;53.60;;;;;;5053106;28;20054;-85
2022/03/12 00:49:44;;;;;;;12.45;6.57;;;6.50;53.90;;;;;;5042690;28;20085;-85
2022/03/12 00:52:10;;;;;;;11.20;7.13;;;6.50;54.10;;;;;;5037142;28;20054;-85
2022/03/12 00:54:36;;;;;;;14.45;7.57;;;6.50;54.10;;;;;;5026186;28;20060;-84
2022/03/12 00:57:01;;;;;;;10.90;8.15;;;6.50;54.40;;;;;;5024803;28;20126;-84
2022/03/12 00:59:27;;;;;;;10.85;7.22;;;6.60;54.00;;;;;;5042160;28;20043;-86
2022/03/12 01:01:53;;;;;;;13.23;7.13;;;6.60;53.90;;;;;;5030615;27;20486;-86
2022/03/12 01:04:19;;;;;;;11.15;6.40;;;6.50;54.40;;;;;;5036324;28;20034;-85
2022/03/12 01:06:46;;;;;;;11.20;6.70;;;6.60;53.80;;;;;;5004576;28;20037;-85
2022/03/12 01:09:11;;;;;;;12.57;7.05;;;6.60;53.80;;;;;;5061895;28;20531;-84
2022/03/12 01:11:38;;;;;;;11.73;7.22;;;6.60;53.70;;;;;;5051709;27;20040;-85
2022/03/12 01:14:08;;;;;;;12.57;7.15;;;6.60;53.50;;;;;;5009768;28;20053;-84
2022/03/12 01:16:34;;;;;;;13.10;7.05;;;6.60;53.70;;;;;;5079681;28;20081;-85
2022/03/12 01:19:00;;;;;;;11.45;6.85;;;6.60;53.50;;;;;;5060388;28;20410;-86
2022/03/12 01:21:26;;;;;;;12.05;6.90;;;6.60;53.50;;;;;;5011704;28;20054;-85
2022/03/12 01:23:51;;;;;;;12.40;6.43;;;6.60;53.50;;;;;;5012057;28;20041;-85
2022/03/12 01:26:19;;;;;;;12.30;6.47;;;6.60;53.60;;;;;;5012703;28;20068;-85
2022/03/12 01:28:45;;;;;;;10.93;6.78;;;6.60;53.70;;;;;;5032584;28;20046;-85
2022/03/12 01:31:12;;;;;;;12.07;6.93;;;6.70;53.40;;;;;;5032577;28;20065;-85
2022/03/12 01:33:38;;;;;;;12.32;6.38;;;6.60;53.40;;;;;;5024292;28;20033;-85
2022/03/12 01:36:04;;;;;;;11.50;6.30;;;6.70;53.30;;;;;;5034579;28;20043;-85
2022/03/12 01:38:35;;;;;;;13.02;7.45;;;6.70;53.40;;;;;;5016105;28;20390;-85
2022/03/12 01:41:02;;;;;;;11.40;6.85;;;6.70;53.50;;;;;;5011002;28;20126;-85
2022/03/12 01:43:31;;;;;;;12.60;6.90;;;6.70;53.30;;;;;;5019877;28;20056;-85
2022/03/12 01:46:01;;;;;;;12.68;7.18;;;6.70;53.50;;;;;;5040984;28;20036;-86
2022/03/12 01:48:28;;;;;;;12.00;6.40;;;6.70;53.50;;;;;;5012867;28;20042;-85
2022/03/12 01:50:54;;;;;;;12.05;6.60;;;6.70;53.40;;;;;;5020403;28;20453;-86
2022/03/12 01:53:20;;;;;;;12.77;7.00;;;6.70;53.30;;;;;;5062906;28;20396;-85
2022/03/12 01:55:46;;;;;;;12.35;7.72;;;6.70;53.30;;;;;;5005934;28;20050;-85
2022/03/12 01:58:12;;;;;;;12.32;7.60;;;6.70;53.30;;;;;;5043118;28;20052;-85
2022/03/12 02:00:45;;;;;;;12.10;6.72;;;6.70;53.20;;;;;;5007107;28;20497;-85
2022/03/12 02:03:12;;;;;;;13.43;7.35;;;6.70;53.20;;;;;;5011681;28;20502;-85
2022/03/12 02:05:38;;;;;;;12.88;7.18;;;6.70;53.50;;;;;;5052449;28;20880;-85
2022/03/12 02:08:05;;;;;;;11.68;6.72;;;6.70;53.00;;;;;;5012867;28;20050;-84
2022/03/12 02:10:31;;;;;;;12.07;7.40;;;6.70;52.90;;;;;;5031244;28;20472;-85
2022/03/12 02:12:57;;;;;;;12.98;8.07;;;6.70;53.00;;;;;;5018293;28;20038;-87
2022/03/12 02:15:23;;;;;;;13.45;6.80;;;6.80;53.30;;;;;;5031147;28;20044;-85
2022/03/12 02:17:51;;;;;;;13.95;7.10;;;6.80;53.10;;;;;;5066884;28;20049;-85
2022/03/12 02:20:18;;;;;;;12.25;7.38;;;6.70;53.00;;;;;;5022434;28;20127;-84
2022/03/12 02:22:45;;;;;;;12.15;6.47;;;6.70;53.20;;;;;;5017590;28;20084;-85
2022/03/12 02:25:12;;;;;;;11.52;6.65;;;6.70;53.80;;;;;;5091262;28;20430;-85
2022/03/12 02:27:38;;;;;;;12.98;7.50;;;6.70;53.40;;;;;;5017940;28;20054;-85
2022/03/12 02:30:08;;;;;;;12.02;8.57;;;6.70;53.30;;;;;;5034073;28;20064;-85
2022/03/12 02:32:37;;;;;;;11.77;7.28;;;6.70;53.20;;;;;;5012665;28;20053;-85
2022/03/12 02:35:10;;;;;;;10.85;6.65;;;6.70;52.90;;;;;;5059157;28;20079;-84
2022/03/12 02:37:35;;;;;;;12.23;8.32;;;6.70;52.90;;;;;;5065279;28;20054;-85
2022/03/12 02:40:05;;;;;;;11.57;7.60;;;6.80;52.90;;;;;;5034211;28;20043;-86
2022/03/12 02:42:32;;;;;;;11.68;6.72;;;6.80;52.60;;;;;;5025034;28;20051;-85
2022/03/12 02:44:59;;;;;;;12.55;6.72;;;6.80;52.70;;;;;;5009059;28;20430;-85
2022/03/12 02:47:30;;;;;;;11.25;7.18;;;6.80;52.80;;;;;;5053355;28;20046;-85
2022/03/12 02:50:03;;;;;;;14.00;6.70;;;6.70;53.00;;;;;;5019139;28;20054;-85
2022/03/12 02:52:31;;;;;;;11.98;7.20;;;6.70;53.20;;;;;;5009032;28;20053;-85
2022/03/12 02:54:59;;;;;;;11.23;7.30;;;6.70;53.10;;;;;;5009581;28;20114;-84
2022/03/12 02:57:26;;;;;;;12.82;6.93;;;6.70;53.20;;;;;;5032837;28;20118;-86
2022/03/12 02:59:53;;;;;;;13.18;8.35;;;6.70;53.20;;;;;;5012963;28;20049;-85
2022/03/12 03:02:35;;;;;;;12.65;8.35;;;6.70;53.00;;;;;;5012408;28;20093;-85
2022/03/12 03:05:01;;;;;;;14.07;8.00;;;6.80;52.80;;;;;;5017091;28;20433;-86
2022/03/12 03:07:26;;;;;;;12.13;6.47;;;6.70;52.70;;;;;;5052571;28;20039;-85
2022/03/12 03:09:52;;;;;;;12.07;6.60;;;6.70;53.00;;;;;;5023541;28;20409;-85
2022/03/12 03:12:20;;;;;;;10.93;6.80;;;6.70;53.20;;;;;;5027259;28;20547;-86
2022/03/12 03:14:49;;;;;;;11.75;6.93;;;6.60;53.30;;;;;;5012416;28;20054;-84
2022/03/12 03:17:16;;;;;;;11.23;8.60;;;6.60;53.20;;;;;;5011323;28;20501;-84
2022/03/12 03:19:42;;;;;;;11.32;6.95;;;6.70;53.20;;;;;;5014058;28;20125;-86
2022/03/12 03:22:08;;;;;;;13.27;6.85;;;6.60;53.00;;;;;;5023275;28;20045;-85
2022/03/12 03:24:35;;;;;;;12.70;7.65;;;6.60;53.10;;;;;;5040064;28;20043;-84
2022/03/12 03:27:01;;;;;;;13.00;6.90;;;6.60;53.20;;;;;;5025231;28;20045;-85
2022/03/12 03:29:30;;;;;;;11.35;7.97;;;6.60;53.10;;;;;;5007086;28;20046;-85
2022/03/12 03:31:56;;;;;;;11.50;6.88;;;6.70;53.20;;;;;;5017509;28;20038;-84
2022/03/12 03:34:23;;;;;;;11.88;8.25;;;6.70;53.20;;;;;;5035182;28;20109;-85
2022/03/12 03:36:50;;;;;;;13.85;7.90;;;6.70;53.20;;;;;;5046790;28;20045;-85
2022/03/12 03:39:17;;;;;;;13.43;7.45;;;6.60;53.20;;;;;;5018376;28;20038;-85
2022/03/12 03:41:43;;;;;;;11.50;8.27;;;6.60;53.30;;;;;;5055237;28;20394;-84
2022/03/12 03:44:09;;;;;;;12.57;7.28;;;6.60;53.40;;;;;;5009382;28;20038;-85
2022/03/12 03:46:35;;;;;;;11.55;7.22;;;6.60;53.30;;;;;;5049125;28;20060;-84
2022/03/12 03:49:03;;;;;;;12.63;7.57;;;6.50;54.10;;;;;;5014117;28;20086;-85
2022/03/12 03:51:28;;;;;;;12.93;7.50;;;6.50;53.60;;;;;;5034876;28;20056;-86
2022/03/12 03:53:54;;;;;;;12.13;6.93;;;6.50;53.50;;;;;;5048756;28;20419;-85
2022/03/12 03:56:20;;;;;;;12.82;7.32;;;6.40;53.60;;;;;;5009455;28;20053;-84
2022/03/12 03:58:46;;;;;;;11.45;7.00;;;6.40;53.60;;;;;;5018282;28;20050;-85
2022/03/12 04:01:22;;;;;;;11.00;6.88;;;6.30;53.60;;;;;;5015577;28;20050;-85
2022/03/12 04:03:48;;;;;;;11.23;6.85;;;6.30;53.90;;;;;;5048441;28;20070;-86
2022/03/12 04:06:21;;;;;;;15.02;7.32;;;6.30;53.90;;;;;;5063208;28;20027;-85
2022/03/12 04:08:48;;;;;;;12.88;8.30;;;6.20;53.90;;;;;;5025970;28;20095;-85
2022/03/12 04:11:22;;;;;;;12.45;7.68;;;6.30;54.10;;;;;;5027080;28;20124;-84
2022/03/12 04:13:49;;;;;;;10.88;7.07;;;6.20;54.00;;;;;;5047280;28;20048;-84
2022/03/12 04:16:16;;;;;;;11.77;6.70;;;6.20;54.10;;;;;;5033619;28;20119;-84
2022/03/12 04:18:44;;;;;;;12.02;7.05;;;6.20;54.20;;;;;;5037249;28;20053;-85
2022/03/12 04:21:10;;;;;;;14.25;7.53;;;6.20;54.20;;;;;;5031332;28;20054;-85
2022/03/12 04:23:35;;;;;;;13.25;6.80;;;6.10;54.50;;;;;;5008893;28;20061;-86
2022/03/12 04:26:02;;;;;;;14.35;7.65;;;6.10;54.60;;;;;;5063776;28;20044;-85
2022/03/12 04:28:33;;;;;;;14.32;7.78;;;6.20;54.80;;;;;;5032854;28;20038;-85
2022/03/12 04:31:00;;;;;;;12.38;7.03;;;6.20;54.80;;;;;;5032564;28;20050;-85
2022/03/12 04:33:26;;;;;;;12.25;6.97;;;6.20;54.90;;;;;;5067432;28;20036;-85
2022/03/12 04:35:53;;;;;;;12.60;7.55;;;6.10;55.00;;;;;;5011655;28;20049;-85
2022/03/12 04:38:18;;;;;;;13.65;8.15;;;6.20;55.10;;;;;;5012631;28;20042;-85
2022/03/12 04:40:45;;;;;;;12.38;7.45;;;6.20;55.10;;;;;;5012464;28;20561;-84
2022/03/12 04:43:12;;;;;;;12.50;7.68;;;6.20;55.10;;;;;;5028676;28;20039;-85
2022/03/12 04:45:39;;;;;;;12.07;7.47;;;6.20;55.00;;;;;;5052800;28;20040;-85
2022/03/12 04:48:06;;;;;;;12.10;7.05;;;6.20;55.00;;;;;;5011378;28;20139;-85
2022/03/12 04:50:32;;;;;;;13.77;7.80;;;6.20;55.00;;;;;;5043272;28;20078;-85
2022/03/12 04:52:59;;;;;;;12.00;7.18;;;6.20;55.20;;;;;;5065407;28;20039;-84
2022/03/12 04:55:28;;;;;;;13.73;7.93;;;6.10;55.00;;;;;;5024999;28;20038;-85
2022/03/12 04:57:54;;;;;;;12.57;7.30;;;6.10;55.10;;;;;;5012305;28;20089;-84
2022/03/12 05:00:25;;;;;;;12.05;7.47;;;6.00;55.20;;;;;;5010780;28;20147;-85
2022/03/12 05:03:11;;;;;;;13.10;7.30;;;6.10;55.40;;;;;;5030814;28;20063;-85
2022/03/12 05:05:45;;;;;;;13.68;7.30;;;6.00;55.30;;;;;;5068683;28;20036;-85
2022/03/12 05:08:20;;;;;;;12.00;7.25;;;6.10;55.50;;;;;;5060500;28;20048;-86
2022/03/12 05:10:52;;;;;;;13.75;7.25;;;6.00;55.20;;;;;;5019018;28;20056;-86
2022/03/12 05:13:27;;;;;;;10.98;6.80;;;6.00;55.40;;;;;;5052589;28;20047;-85
2022/03/12 05:15:55;;;;;;;13.15;8.60;;;6.10;55.50;;;;;;5024491;28;20123;-85
2022/03/12 05:18:23;;;;;;;12.68;7.50;;;6.00;55.50;;;;;;5081138;28;20125;-85
2022/03/12 05:20:50;;;;;;;11.80;6.93;;;6.00;55.50;;;;;;5037248;28;20125;-85
2022/03/12 05:23:17;;;;;;;13.73;7.15;;;6.00;55.70;;;;;;5012816;28;20493;-85
2022/03/12 05:25:44;;;;;;;15.23;7.03;;;5.90;55.80;;;;;;5047394;28;20071;-85
2022/03/12 05:28:15;;;;;;;13.05;7.00;;;5.90;55.80;;;;;;5038197;28;20052;-85
2022/03/12 05:30:42;;;;;;;14.05;7.78;;;5.90;56.00;;;;;;5026883;28;20041;-86
2022/03/12 05:33:08;;;;;;;13.85;8.23;;;5.90;56.30;;;;;;5057450;28;20040;-85
2022/03/12 05:35:33;;;;;;;12.73;7.20;;;5.90;56.40;;;;;;5050534;28;20449;-85
2022/03/12 05:37:59;;;;;;;12.65;6.70;;;5.90;56.50;;;;;;5050732;28;20042;-84
2022/03/12 05:40:26;;;;;;;14.52;7.65;;;5.80;56.30;;;;;;5018810;28;20041;-85
2022/03/12 05:42:55;;;;;;;11.98;7.05;;;5.80;56.50;;;;;;5026642;28;20040;-84
2022/03/12 05:45:23;;;;;;;11.85;7.00;;;5.80;56.50;;;;;;5018073;28;20376;-84
2022/03/12 05:47:49;;;;;;;11.55;7.30;;;5.80;56.40;;;;;;5034181;28;20410;-85
2022/03/12 05:50:17;;;;;;;11.88;6.88;;;5.80;56.60;;;;;;5033947;28;20517;-85
2022/03/12 05:52:48;;;;;;;12.68;7.63;;;5.80;56.70;;;;;;5033805;28;20061;-86
2022/03/12 05:55:16;;;;;;;12.80;7.32;;;5.80;56.80;;;;;;5011492;28;20042;-85
2022/03/12 05:57:42;;;;;;;12.50;7.00;;;5.80;56.80;;;;;;5054284;28;20058;-85
2022/03/12 06:00:11;;;;;;;12.00;6.90;;;5.80;56.70;;;;;;5010307;28;20061;-86
2022/03/12 06:02:40;;;;;;;14.77;8.25;;;5.90;56.80;;;;;;5019420;28;20056;-85
2022/03/12 06:05:11;;;;;;;12.00;7.70;;;5.80;56.80;;;;;;5036502;28;20410;-84
2022/03/12 06:07:38;;;;;;;10.60;6.75;;;5.90;56.70;;;;;;5009801;28;20071;-85
2022/03/12 06:10:05;;;;;;;12.50;7.18;;;5.90;56.60;;;;;;4993921;28;20057;-85
2022/03/12 06:12:30;;;;;;;12.35;7.50;;;5.90;56.60;;;;;;5075395;28;20425;-85
2022/03/12 06:14:56;;;;;;;12.38;7.03;;;5.90;56.70;;;;;;5071551;28;20040;-84
2022/03/12 06:17:26;;;;;;;12.00;7.40;;;5.90;56.70;;;;;;5011467;28;20131;-85
2022/03/12 06:19:52;;;;;;;12.15;7.30;;;5.90;56.70;;;;;;5058591;28;20048;-85
2022/03/12 06:22:18;;;;;;;11.70;8.90;;;5.90;56.70;;;;;;5025534;28;20045;-84
2022/03/12 06:24:46;;;;;;;12.70;7.15;;;6.00;56.70;;;;;;5010224;28;20056;-85
2022/03/12 06:27:12;;;;;;;14.18;7.18;;;6.00;56.60;;;;;;5012774;28;20046;-85
2022/03/12 06:29:38;;;;;;;12.77;7.13;;;5.90;56.70;;;;;;5017736;28;20072;-86
2022/03/12 06:32:05;;;;;;;13.65;7.07;;;5.90;56.70;;;;;;5042460;28;20126;-85
2022/03/12 06:34:32;;;;;;;12.38;7.53;;;5.90;56.90;;;;;;5080590;28;20042;-86
2022/03/12 06:36:58;;;;;;;12.82;7.47;;;5.90;57.20;;;;;;5030865;28;20080;-85
2022/03/12 06:39:23;;;;;;;11.57;7.35;;;5.90;57.20;;;;;;5012103;28;20076;-85
2022/03/12 06:41:50;;;;;;;11.82;7.43;;;5.90;57.30;;;;;;5012530;28;20065;-84
2022/03/12 06:44:17;;;;;;;12.63;7.40;;;5.90;57.60;;;;;;5012759;28;20098;-85
2022/03/12 06:46:44;;;;;;;15.93;7.65;;;5.90;57.70;;;;;;5014299;28;20053;-84
2022/03/12 06:49:09;;;;;;;12.90;7.78;;;5.90;57.80;;;;;;4989217;28;20080;-86
2022/03/12 06:51:35;;;;;;;12.85;7.72;;;6.00;57.80;;;;;;5009750;28;20050;-85
2022/03/12 06:54:00;;;;;;;12.40;7.63;;;6.00;57.90;;;;;;5015770;28;20038;-85
2022/03/12 06:56:26;;;;;;;13.02;7.03;;;6.00;57.90;;;;;;5010730;28;20483;-86
2022/03/12 06:58:52;;;;;;;13.63;7.63;;;6.10;58.00;;;;;;5043302;28;20036;-86
2022/03/12 07:01:18;;;;;;;12.40;7.75;;;6.10;58.00;;;;;;5017192;28;20050;-86
2022/03/12 07:03:43;;;;;;;11.68;7.72;;;6.20;58.00;;;;;;5076554;28;20803;-86
2022/03/12 07:06:09;;;;;;;12.88;7.78;;;6.20;58.00;;;;;;5011887;28;20104;-84
2022/03/12 07:08:36;;;;;;;12.77;7.45;;;6.20;57.90;;;;;;5010483;28;20461;-87
2022/03/12 07:11:02;;;;;;;12.32;7.30;;;6.10;57.90;;;;;;5031650;28;20093;-85
2022/03/12 07:13:28;;;;;;;12.90;8.30;;;6.10;57.90;;;;;;5012858;28;20393;-85
2022/03/12 07:15:54;;;;;;;12.05;7.57;;;6.10;58.10;;;;;;5009247;28;20132;-84
2022/03/12 07:18:20;;;;;;;13.30;7.78;;;6.00;58.10;;;;;;5012849;28;20054;-84
2022/03/12 07:20:47;;;;;;;12.75;7.95;;;6.00;58.40;;;;;;5009288;28;20048;-84
2022/03/12 07:23:13;;;;;;;13.27;7.75;;;6.00;58.70;;;;;;4979614;28;20050;-84
2022/03/12 07:25:38;;;;;;;12.82;7.82;;;6.00;58.80;;;;;;5013006;28;20499;-85
2022/03/12 07:28:05;;;;;;;13.80;8.00;;;6.00;58.90;;;;;;5032507;28;20168;-85
2022/03/12 07:30:30;;;;;;;13.30;8.18;;;5.90;59.10;;;;;;5012583;28;20053;-85
2022/03/12 07:32:56;;;;;;;12.30;7.95;;;6.00;59.30;;;;;;5013746;28;20355;-85
2022/03/12 07:35:22;;;;;;;13.98;8.13;;;6.00;59.40;;;;;;5013482;28;20046;-86
2022/03/12 07:37:49;;;;;;;13.98;8.02;;;6.10;59.60;;;;;;5009362;28;20534;-86
2022/03/12 07:40:16;;;;;;;13.35;8.10;;;6.20;59.60;;;;;;5007678;28;20068;-84
2022/03/12 07:42:42;;;;;;;13.18;7.85;;;6.30;59.60;;;;;;5011031;28;20053;-85
2022/03/12 07:45:09;;;;;;;14.75;9.02;;;6.40;59.60;;;;;;5020871;28;20038;-86
2022/03/12 07:47:36;;;;;;;13.38;9.43;;;6.50;59.70;;;;;;5039728;28;20052;-85
2022/03/12 07:50:02;;;;;;;12.70;8.82;;;6.70;59.60;;;;;;5059221;28;20043;-86
2022/03/12 07:52:28;;;;;;;17.55;8.27;;;6.80;59.60;;;;;;5022032;28;20037;-86
2022/03/12 07:54:54;;;;;;;15.20;9.27;;;6.80;59.30;;;;;;5035896;28;20069;-85
2022/03/12 07:57:19;;;;;;;18.30;10.75;;;6.90;59.20;;;;;;5010801;28;20697;-85
2022/03/12 07:59:45;;;;;;;18.70;12.45;;;7.00;59.20;;;;;;5053047;28;20050;-85
2022/03/12 08:02:11;;;;;;;19.50;10.82;;;7.10;59.10;;;;;;5024565;28;20201;-86
2022/03/12 08:04:37;;;;;;;16.38;11.77;;;7.20;59.00;;;;;;5022360;28;20046;-86
2022/03/12 08:07:03;;;;;;;18.10;10.27;;;7.30;58.90;;;;;;5049930;28;20046;-86
2022/03/12 08:09:31;;;;;;;17.73;12.63;;;7.40;58.80;;;;;;5052012;28;20118;-85
2022/03/12 08:11:59;;;;;;;17.60;13.13;;;7.50;58.90;;;;;;5031897;28;20051;-85
2022/03/12 08:14:26;;;;;;;21.00;14.82;;;7.60;58.90;;;;;;5038546;28;20045;-86
2022/03/12 08:16:52;;;;;;;24.77;15.45;;;7.70;58.90;;;;;;5027411;28;20397;-86
2022/03/12 08:19:19;;;;;;;25.02;14.13;;;7.80;58.70;;;;;;5011815;28;20059;-85
2022/03/12 08:21:45;;;;;;;21.77;15.63;;;7.90;58.70;;;;;;5022745;28;20098;-86
2022/03/12 08:24:15;;;;;;;19.60;13.57;;;8.00;58.80;;;;;;5035338;28;20131;-86
2022/03/12 08:26:42;;;;;;;21.83;14.73;;;8.00;58.80;;;;;;5023649;28;20390;-85
2022/03/12 08:29:10;;;;;;;18.77;12.63;;;8.10;58.90;;;;;;5036969;28;20038;-85
2022/03/12 08:31:36;;;;;;;17.55;13.07;;;8.20;59.20;;;;;;5043561;28;20564;-85
2022/03/12 08:34:03;;;;;;;16.05;11.68;;;8.30;58.70;;;;;;5040379;28;20490;-86
2022/03/12 08:36:28;;;;;;;15.80;10.90;;;8.50;58.70;;;;;;5020916;28;20054;-87
2022/03/12 08:38:54;;;;;;;15.77;11.68;;;8.60;58.60;;;;;;5048202;28;20048;-86
2022/03/12 08:41:22;;;;;;;15.68;11.10;;;8.80;58.70;;;;;;5013652;28;20046;-84
2022/03/12 08:43:47;;;;;;;14.63;10.52;;;8.80;58.40;;;;;;5062998;28;20048;-84
2022/03/12 08:46:13;;;;;;;16.02;10.30;;;8.90;58.30;;;;;;5048535;28;20042;-82
2022/03/12 08:48:40;;;;;;;16.73;10.85;;;9.00;58.30;;;;;;5016510;28;20475;-85
2022/03/12 08:51:05;;;;;;;14.43;11.15;;;9.10;58.40;;;;;;5020448;28;20041;-84
2022/03/12 08:53:31;;;;;;;14.13;10.68;;;9.20;58.30;;;;;;5012257;28;20045;-84
2022/03/12 08:56:00;;;;;;;15.73;10.77;;;9.30;58.20;;;;;;5018962;28;20050;-85
2022/03/12 08:58:26;;;;;;;15.40;10.95;;;9.40;58.20;;;;;;5014867;28;20158;-84
2022/03/12 09:00:52;;;;;;;16.00;11.07;;;9.50;58.20;;;;;;5009139;28;20394;-83
2022/03/12 09:03:19;;;;;;;16.15;11.35;;;9.50;58.20;;;;;;5053696;28;20066;-83
2022/03/12 09:05:46;;;;;;;14.77;10.88;;;9.60;58.30;;;;;;5074504;28;20056;-83
2022/03/12 09:08:12;;;;;;;15.05;10.80;;;9.70;58.30;;;;;;5026627;28;20428;-83
2022/03/12 09:10:38;;;;;;;15.65;11.13;;;9.80;58.80;;;;;;5047329;28;20109;-83
2022/03/12 09:13:06;;;;;;;14.13;10.52;;;9.90;58.20;;;;;;5043159;28;20049;-83
2022/03/12 09:15:32;;;;;;;14.88;10.57;;;10.00;57.90;;;;;;5014560;28;20129;-84
2022/03/12 09:17:57;;;;;;;15.13;11.02;;;10.10;58.60;;;;;;5017514;28;20097;-85
2022/03/12 09:20:23;;;;;;;15.60;11.15;;;10.20;58.10;;;;;;5046298;28;20081;-84
2022/03/12 09:22:48;;;;;;;15.95;11.25;;;10.30;58.10;;;;;;5013938;28;20439;-84
2022/03/12 09:25:15;;;;;;;17.35;10.95;;;10.40;58.00;;;;;;5019783;28;20497;-85
2022/03/12 09:27:44;;;;;;;13.85;10.75;;;10.50;58.20;;;;;;5034182;28;20398;-85
2022/03/12 09:30:10;;;;;;;15.48;11.23;;;10.70;58.40;;;;;;5080051;28;20045;-83
2022/03/12 09:32:36;;;;;;;14.90;11.32;;;10.70;58.60;;;;;;5041784;28;20045;-84
2022/03/12 09:35:02;;;;;;;15.35;11.27;;;10.90;58.80;;;;;;5094654;28;20035;-84
2022/03/12 09:37:28;;;;;;;13.60;10.45;;;11.10;59.20;;;;;;5052299;28;20041;-86
2022/03/12 09:39:53;;;;;;;14.88;10.73;;;11.20;60.20;;;;;;5010515;28;20052;-86
2022/03/12 09:42:19;;;;;;;14.77;10.18;;;11.30;61.10;;;;;;5012828;28;20049;-85
2022/03/12 09:44:44;;;;;;;12.27;9.75;;;11.50;61.70;;;;;;5035063;28;20043;-84
2022/03/12 09:47:10;;;;;;;14.40;10.48;;;11.70;61.80;;;;;;5032505;28;20047;-87
2022/03/12 09:49:36;;;;;;;14.63;10.90;;;11.80;61.80;;;;;;5012464;28;20350;-84
2022/03/12 09:52:03;;;;;;;15.20;10.60;;;11.80;61.70;;;;;;5046200;28;20051;-85
2022/03/12 09:54:30;;;;;;;16.35;11.15;;;11.90;61.80;;;;;;5067132;28;20130;-86
2022/03/12 09:56:57;;;;;;;13.70;10.27;;;12.00;62.00;;;;;;5082057;28;20452;-85
2022/03/12 09:59:23;;;;;;;14.20;11.55;;;12.10;62.10;;;;;;5093998;28;20040;-85
2022/03/12 10:01:48;;;;;;;16.30;11.73;;;12.20;62.30;;;;;;5058981;28;20466;-83
2022/03/12 10:04:14;;;;;;;14.77;11.23;;;12.30;62.60;;;;;;5016120;28;20046;-86
2022/03/12 10:06:40;;;;;;;15.68;11.63;;;12.40;62.50;;;;;;5074765;28;20047;-86
2022/03/12 10:09:06;;;;;;;15.60;11.60;;;12.40;62.20;;;;;;5057571;28;20045;-86
2022/03/12 10:11:33;;;;;;;14.80;11.13;;;12.50;62.30;;;;;;5036948;28;20133;-85
2022/03/12 10:13:59;;;;;;;16.88;11.07;;;12.50;62.50;;;;;;5058076;28;20054;-85
2022/03/12 10:16:25;;;;;;;14.82;11.65;;;12.60;62.50;;;;;;5042170;28;20050;-85
2022/03/12 10:18:51;;;;;;;15.93;11.52;;;12.60;62.60;;;;;;5014555;28;20049;-85
2022/03/12 10:21:17;;;;;;;15.82;12.10;;;12.70;62.30;;;;;;5036438;28;20044;-85
2022/03/12 10:23:43;;;;;;;14.93;11.82;;;12.70;62.10;;;;;;5061490;28;20039;-85
2022/03/12 10:26:08;;;;;;;16.38;11.35;;;12.80;62.60;;;;;;5013549;28;20103;-86
2022/03/12 10:28:36;;;;;;;14.95;11.15;;;12.80;62.70;;;;;;5088667;28;20051;-85
2022/03/12 10:31:05;;;;;;;15.45;11.07;;;12.90;63.00;;;;;;5000648;28;20122;-86
2022/03/12 10:33:31;;;;;;;14.15;11.45;;;13.00;63.70;;;;;;5081418;28;20052;-85
2022/03/12 10:36:15;;;;;;;15.05;11.13;;;13.10;64.00;;;;;;5041022;28;20047;-85
2022/03/12 10:38:44;;;;;;;14.85;11.15;;;13.10;64.40;;;;;;5078623;28;20510;-85
2022/03/12 10:41:11;;;;;;;15.18;10.52;;;13.20;64.30;;;;;;5023250;28;20043;-87
2022/03/12 10:43:53;;;;;;;13.73;10.75;;;13.20;64.80;;;;;;5096753;28;20084;-87
2022/03/12 10:46:27;;;;;;;14.50;10.68;;;13.30;65.40;;;;;;5011467;28;20092;-86
2022/03/12 10:48:57;;;;;;;13.57;10.13;;;13.30;66.10;;;;;;5093040;28;20067;-85
2022/03/12 10:51:28;;;;;;;13.45;10.02;;;13.40;66.70;;;;;;4992431;28;20093;-86
2022/03/12 10:54:07;;;;;;;;;;;13.50;67.30;;;;;;5004133;28;20143;-86
2022/03/12 10:56:54;;;;;;;12.50;9.27;;;13.50;68.30;;;;;;5019178;28;19921;-87
2022/03/12 10:59:25;;;;;;;12.50;9.70;;;13.60;67.90;;;;;;5012607;28;20065;-85
2022/03/12 11:02:04;;;;;;;13.77;9.90;;;13.70;67.80;;;;;;5012272;28;20059;-86
2022/03/12 11:04:31;;;;;;;13.82;9.70;;;13.70;69.00;;;;;;5073966;28;20053;-86
2022/03/12 11:06:58;;;;;;;14.48;9.73;;;13.80;69.00;;;;;;5063976;28;20052;-86
2022/03/12 11:09:37;;;;;;;15.23;9.63;;;13.90;69.10;;;;;;5064835;28;20137;-87
2022/03/12 11:12:04;;;;;;;13.20;9.07;;;14.00;69.10;;;;;;5010152;28;20041;-86
2022/03/12 11:14:31;;;;;;;13.63;9.32;;;14.00;69.30;;;;;;5014055;28;20052;-85
2022/03/12 11:16:58;;;;;;;11.73;8.68;;;14.00;69.60;;;;;;5014147;28;20406;-85
2022/03/12 11:19:41;;;;;;;12.07;8.95;;;14.10;70.60;;;;;;5073250;28;20052;-84
2022/03/12 11:22:12;;;;;;;13.10;8.38;;;14.20;70.40;;;;;;5045731;28;20122;-86
2022/03/12 11:24:46;;;;;;;13.65;9.15;;;14.20;70.00;;;;;;5074949;28;20040;-86
2022/03/12 11:27:26;;;;;;;12.50;8.75;;;14.20;69.60;;;;;;5065007;28;20379;-85
2022/03/12 11:29:58;;;;;;;11.90;8.43;;;14.30;69.80;;;;;;5018487;28;20037;-86
2022/03/12 11:32:24;;;;;;;11.52;8.63;;;14.40;69.70;;;;;;5013752;28;20151;-85
2022/03/12 11:34:49;;;;;;;12.73;8.40;;;14.50;69.20;;;;;;5068737;28;20043;-85
2022/03/12 11:37:21;;;;;;;12.18;8.98;;;14.50;69.10;;;;;;5056349;28;20129;-85
2022/03/12 11:39:52;;;;;;;12.25;8.27;;;14.40;69.10;;;;;;5012479;28;20439;-86
2022/03/12 11:42:19;;;;;;;13.30;8.82;;;14.40;68.80;;;;;;5048887;28;20052;-86
2022/03/12 11:44:54;;;;;;;13.45;8.80;;;14.30;69.00;;;;;;5011351;28;20124;-86
2022/03/12 11:47:31;;;;;;;11.88;8.35;;;14.30;69.60;;;;;;5013108;28;20111;-85
2022/03/12 11:50:00;;;;;;;12.35;8.77;;;14.40;70.00;;;;;;5028347;28;20054;-86
2022/03/12 11:52:26;;;;;;;12.55;8.63;;;14.40;70.10;;;;;;5052525;28;20051;-85
2022/03/12 11:54:54;;;;;;;13.60;8.50;;;14.40;69.60;;;;;;5060778;28;20056;-85
2022/03/12 11:57:27;;;;;;;13.25;8.68;;;14.50;69.40;;;;;;5016131;28;20060;-87
2022/03/12 11:59:53;;;;;;;13.05;8.85;;;14.60;69.40;;;;;;5052189;28;20045;-86
2022/03/12 12:02:35;;;;;;;11.38;8.27;;;14.70;69.60;;;;;;5032259;28;20090;-85
2022/03/12 12:05:04;;;;;;;12.13;8.55;;;14.80;68.90;;;;;;5049804;28;20042;-87
2022/03/12 12:07:31;;;;;;;13.38;8.02;;;14.80;67.20;;;;;;5030350;28;20395;-86
2022/03/12 12:09:57;;;;;;;11.77;8.20;;;14.80;67.20;;;;;;4992268;28;20085;-86
2022/03/12 12:12:27;;;;;;;13.00;8.70;;;14.90;67.70;;;;;;5039090;28;20509;-84
2022/03/12 12:14:55;;;;;;;13.32;8.52;;;14.90;67.50;;;;;;5067007;28;20043;-84
2022/03/12 12:17:20;;;;;;;12.68;8.77;;;14.90;67.30;;;;;;5022666;28;20051;-85
2022/03/12 12:19:46;;;;;;;13.10;8.48;;;14.90;67.40;;;;;;5046493;28;20052;-85
2022/03/12 12:22:13;;;;;;;11.32;8.43;;;15.00;67.60;;;;;;5067880;28;20060;-86
2022/03/12 12:24:39;;;;;;;11.55;7.75;;;15.00;67.10;;;;;;5040850;28;20486;-86
2022/03/12 12:27:15;;;;;;;12.13;8.60;;;15.10;66.70;;;;;;5031511;28;20046;-87
2022/03/12 12:29:40;;;;;;;12.63;8.60;;;15.20;66.20;;;;;;5040205;28;20046;-86
2022/03/12 12:32:10;;;;;;;11.98;8.55;;;15.10;66.10;;;;;;5014448;28;20034;-85
2022/03/12 12:34:37;;;;;;;12.90;8.77;;;15.20;66.10;;;;;;5019322;28;20077;-85
2022/03/12 12:37:03;;;;;;;12.80;8.35;;;15.20;66.20;;;;;;5079366;28;20054;-85
2022/03/12 12:39:29;;;;;;;11.32;8.63;;;15.20;66.00;;;;;;5010184;28;20046;-87
2022/03/12 12:42:05;;;;;;;12.05;8.02;;;15.30;66.00;;;;;;5050908;28;20054;-87
2022/03/12 12:44:33;;;;;;;13.00;8.30;;;15.40;65.20;;;;;;5067813;28;20044;-86
2022/03/12 12:47:02;;;;;;;11.52;8.13;;;15.40;64.60;;;;;;5045044;28;20143;-87